Terminal Aerodrome Forecast
Issued by NWS Amarillo, TX

Home | Current Version | Previous Version | Text Only | Print | Product List | Glossary On
Versions: 1 2 3 4 5 6 7 8 9 10 11 12 13 14 15 16 17 18 19
000
FTUS44 KAMA 310800 AAA
TAFAMA
TAF AMD
KAMA 310829Z 3108/0106 17011KT 6SM -RA BR OVC020
      TEMPO 3109/3111 3SM RA BKN007
     FM311100 18010KT 3SM -RA OVC005
     FM311600 14008KT 4SM RA BR OVC005
     FM010000 20006KT P6SM OVC008=

USA.gov is the U.S. government's official web portal to all federal, state and local government web resources and services.